Tenma — JD2303 — position and weather

sailwx.info

Track history (hours):
 
Tides and Currents Weather Stations Pressure Air Temp Water Temp Dewpoint Dewpoint Depression Visibility Wind Speed Wind Dir Waves Ship Positions

Tenma

Last reported at 2018-Apr-27 02:30 UTC. Time now 2018-Apr-27 02:45 UTC.
Position N 34°38' E 135°14'.

Length 80 m; draft 3.6 m.

Type: Cargo ship. MMSI: 431402072.

Date/timePositionNaut miles runAvg speedWind from/ knotsBaromVisibWave heightAir tempDewpointWater temp
2018-Apr-27 02:30N 34°38' E 135°14'2 3.2
2018-Apr-27 02:00N 34°39' E 135°15'0 0.0
2018-Apr-27 01:30N 34°39' E 135°15'0 0.4
2018-Apr-27 01:00N 34°39' E 135°15'1 2.2
2018-Apr-27 00:31N 34°40' E 135°15'1 2.7
2018-Apr-27 00:00N 34°41' E 135°17'0 0.0
2018-Apr-26 23:30N 34°41' E 135°17'0 0.0
2018-Apr-26 23:00N 34°41' E 135°17'0 0.0
2018-Apr-26 22:30N 34°41' E 135°17'4 7.4
2018-Apr-26 22:00N 34°38' E 135°14'713.5
2018-Apr-26 21:30N 34°36' E 135°06'510.3
2018-Apr-26 21:00N 34°37' E 135°00'611.7
2018-Apr-26 20:30N 34°34' E 134°54'611.8
2018-Apr-26 20:00N 34°32' E 134°47'713.2
2018-Apr-26 19:30N 34°30' E 134°40'713.3
2018-Apr-26 19:00N 34°28' E 134°32'713.5
2018-Apr-26 18:30N 34°25' E 134°24'713.2
2018-Apr-26 18:00N 34°24' E 134°17'1113.5
2018-Apr-26 17:10N 34°26' E 134°03'713.5
2018-Apr-26 16:38N 34°24' E 133°55'414.3
2018-Apr-26 16:21N 34°23' E 133°51'5912.5
2018-Apr-26 11:39N 34°06' E 132°42'214.0
2018-Apr-26 11:31N 34°05' E 132°40'813.7
2018-Apr-26 10:57N 34°03' E 132°31'614.0
2018-Apr-26 10:30N 34°06' E 132°25'713.7
2018-Apr-26 10:00N 34°10' E 132°18'4 8.6
2018-Apr-26 09:30N 34°13' E 132°15'0 0.0
2018-Apr-26 09:00N 34°13' E 132°15'0 0.0
2018-Apr-26 08:30N 34°13' E 132°15'0 0.4
2018-Apr-26 08:00N 34°14' E 132°15'0 0.9
2018-Apr-26 07:30N 34°14' E 132°15'0 0.0
2018-Apr-26 06:59N 34°14' E 132°15'0 0.0
2018-Apr-26 06:30N 34°14' E 132°15'0 0.0
2018-Apr-26 06:00N 34°14' E 132°15'0 0.0
2018-Apr-26 05:30N 34°14' E 132°15'0 0.0
2018-Apr-26 05:00N 34°14' E 132°15'0 0.0
2018-Apr-26 04:30N 34°14' E 132°15'1 2.4
2018-Apr-26 04:00N 34°13' E 132°16'612.5
2018-Apr-26 03:29N 34°08' E 132°21'1111.8
2018-Apr-26 02:34N 34°01' E 132°31'212.0
2018-Apr-26 02:25N 34°01' E 132°33'6 9.6
2018-Apr-26 01:51N 33°55' E 132°36'410.3
2018-Apr-26 01:30N 33°52' E 132°38'4 5.8
2018-Apr-26 00:51N 33°51' E 132°42'0 0.0
2018-Apr-26 00:15N 33°51' E 132°42'0 0.0
2018-Apr-25 23:56N 33°51' E 132°42'0 0.0
2018-Apr-25 23:19N 33°51' E 132°42'0 0.0
2018-Apr-25 22:58N 33°51' E 132°42'0 0.0
2018-Apr-25 22:30N 33°51' E 132°42'0 0.0
2018-Apr-25 22:00N 33°51' E 132°42'0 0.0
2018-Apr-25 21:28N 33°51' E 132°42'0 0.0
2018-Apr-25 20:59N 33°51' E 132°42'0 0.0
2018-Apr-25 20:29N 33°51' E 132°42'0 0.4
2018-Apr-25 19:57N 33°51' E 132°42'510.0
2018-Apr-25 19:30N 33°55' E 132°43'711.8
2018-Apr-25 18:57N 34°01' E 132°46'7410.7
2018-Apr-25 12:01N 34°25' E 134°10'211.0
2018-Apr-25 11:48N 34°24' E 134°13'410.9
2018-Apr-25 11:28N 34°24' E 134°17'611.9
2018-Apr-25 11:00N 34°25' E 134°24'612.4
2018-Apr-25 10:30N 34°28' E 134°31'612.4
2018-Apr-25 10:00N 34°30' E 134°38'612.6
2018-Apr-25 09:30N 34°33' E 134°45'714.0
2018-Apr-25 09:00N 34°35' E 134°53'714.1
2018-Apr-25 08:30N 34°38' E 135°01'713.3
2018-Apr-25 08:00N 34°37' E 135°09'611.2
2018-Apr-25 07:30N 34°39' E 135°15'1 1.1
2018-Apr-25 07:00N 34°40' E 135°14'0 0.0
2018-Apr-25 06:31N 34°40' E 135°14'1 1.0
2018-Apr-25 06:00N 34°39' E 135°15'2 4.7
2018-Apr-25 05:30N 34°41' E 135°17'0 0.0
2018-Apr-25 05:00N 34°41' E 135°17'1 1.1
2018-Apr-25 04:30N 34°41' E 135°16'2 4.9
2018-Apr-25 04:00N 34°38' E 135°15'1 1.0
2018-Apr-25 03:30N 34°38' E 135°15'511.0
2018-Apr-25 03:01N 34°36' E 135°09'713.1
2018-Apr-25 02:30N 34°37' E 135°01'714.4
2018-Apr-25 02:00N 34°38' E 134°52'714.2
2018-Apr-25 01:30N 34°41' E 134°45'713.3
2018-Apr-25 01:00N 34°45' E 134°38'2 4.5
2018-Apr-25 00:29N 34°46' E 134°36'0 0.0
2018-Apr-25 00:00N 34°46' E 134°36'0 0.0
2018-Apr-24 23:30N 34°46' E 134°36'0 0.1
2018-Apr-24 23:00N 34°46' E 134°36'2 3.5
2018-Apr-24 22:30N 34°45' E 134°37'2 3.6
2018-Apr-24 21:59N 34°43' E 134°36'612.2
2018-Apr-24 21:30N 34°42' E 134°29'8 0.8
2018-Apr-24 11:48N 34°39' E 134°20'1212.1
2018-Apr-24 10:50N 34°32' E 134°08'  
2018-Apr-18 06:22N 34°25' E 134°12'410.6
2018-Apr-18 06:00N 34°25' E 134°17'611.5
2018-Apr-18 05:30N 34°26' E 134°24'612.4
2018-Apr-18 05:00N 34°28' E 134°31'612.4
2018-Apr-18 04:30N 34°31' E 134°38'612.0
2018-Apr-18 04:00N 34°33' E 134°45'612.4
2018-Apr-18 03:31N 34°35' E 134°52'612.3
2018-Apr-18 03:01N 34°37' E 134°58'611.7
2018-Apr-18 02:31N 34°36' E 135°05'713.0
2018-Apr-18 02:01N 34°37' E 135°13'4 8.9
2018-Apr-18 01:31N 34°41' E 135°17'0 0.0
2018-Apr-18 01:01N 34°41' E 135°17'2 4.5
2018-Apr-18 00:31N 34°40' E 135°14'0 0.0
2018-Apr-18 00:01N 34°40' E 135°14'0 0.0
2018-Apr-17 23:30N 34°40' E 135°14'1 1.1
2018-Apr-17 23:01N 34°40' E 135°15'2 4.6
2018-Apr-17 22:30N 34°41' E 135°12'0 0.0
2018-Apr-17 21:59N 34°41' E 135°12'0 0.0
2018-Apr-17 21:30N 34°41' E 135°12'0 0.0
2018-Apr-17 21:00N 34°41' E 135°12'0 0.0
2018-Apr-17 20:30N 34°41' E 135°12'0 0.0
2018-Apr-17 20:01N 34°41' E 135°12'0 0.0
2018-Apr-17 19:29N 34°41' E 135°12'0 0.0
2018-Apr-17 19:01N 34°41' E 135°12'0 0.0
2018-Apr-17 18:31N 34°41' E 135°12'0 0.0
2018-Apr-17 18:00N 34°41' E 135°12'0 0.0
2018-Apr-17 17:31N 34°41' E 135°12'0 0.0
2018-Apr-17 17:00N 34°41' E 135°12'0 0.0
2018-Apr-17 16:30N 34°41' E 135°12'0 0.0
2018-Apr-17 16:00N 34°41' E 135°12'0 0.0
2018-Apr-17 15:30N 34°41' E 135°12'0 0.0
2018-Apr-17 15:01N 34°41' E 135°12'0 0.0
2018-Apr-17 14:30N 34°41' E 135°12'0 0.0
2018-Apr-17 14:00N 34°41' E 135°12'0 0.0
2018-Apr-17 13:31N 34°41' E 135°12'0 0.0
2018-Apr-17 13:00N 34°41' E 135°12'0 0.0
2018-Apr-17 12:30N 34°41' E 135°12'0 0.0
2018-Apr-17 12:00N 34°41' E 135°12'0 0.0
2018-Apr-17 11:30N 34°41' E 135°12'0 0.0
2018-Apr-17 10:59N 34°41' E 135°12'0 0.0
2018-Apr-17 10:30N 34°41' E 135°12'0 0.0
2018-Apr-17 10:00N 34°41' E 135°12'0 0.0
2018-Apr-17 09:31N 34°41' E 135°12'0 0.0
2018-Apr-17 09:00N 34°41' E 135°12'0 0.0
2018-Apr-17 08:31N 34°41' E 135°12'0 0.0
2018-Apr-17 08:00N 34°41' E 135°12'1 2.4
2018-Apr-17 07:30N 34°41' E 135°14'4 8.8
2018-Apr-17 07:00N 34°37' E 135°12'713.4
2018-Apr-17 06:30N 34°35' E 135°04'815.5
2018-Apr-17 06:00N 34°35' E 134°54'815.3
2018-Apr-17 05:30N 34°32' E 134°45'713.9
2018-Apr-17 05:00N 34°30' E 134°38'713.6
2018-Apr-17 04:30N 34°27' E 134°30'713.3
2018-Apr-17 03:59N 34°24' E 134°22'  
Track history (hours):
 
Tides and Currents Weather Stations Pressure Air Temp Water Temp Dewpoint Dewpoint Depression Visibility Wind Speed Wind Dir Waves Ship Positions

Tenma

Last reported at 2018-Apr-27 02:30 UTC. Time now 2018-Apr-27 02:45 UTC.
Position N 34°38' E 135°14'.

Length 80 m; draft 3.6 m.

Type: Cargo ship. MMSI: 431402072.

Date/timePositionNaut miles runAvg speedWind from/ knotsBaromVisibWave heightAir tempDewpointWater temp
2018-Apr-27 02:30N 34°38' E 135°14'2 3.2
2018-Apr-27 02:00N 34°39' E 135°15'0 0.0
2018-Apr-27 01:30N 34°39' E 135°15'0 0.4
2018-Apr-27 01:00N 34°39' E 135°15'1 2.2
2018-Apr-27 00:31N 34°40' E 135°15'1 2.7
2018-Apr-27 00:00N 34°41' E 135°17'0 0.0
2018-Apr-26 23:30N 34°41' E 135°17'0 0.0
2018-Apr-26 23:00N 34°41' E 135°17'0 0.0
2018-Apr-26 22:30N 34°41' E 135°17'4 7.4
2018-Apr-26 22:00N 34°38' E 135°14'713.5
2018-Apr-26 21:30N 34°36' E 135°06'510.3
2018-Apr-26 21:00N 34°37' E 135°00'611.7
2018-Apr-26 20:30N 34°34' E 134°54'611.8
2018-Apr-26 20:00N 34°32' E 134°47'713.2
2018-Apr-26 19:30N 34°30' E 134°40'713.3
2018-Apr-26 19:00N 34°28' E 134°32'713.5
2018-Apr-26 18:30N 34°25' E 134°24'713.2
2018-Apr-26 18:00N 34°24' E 134°17'1113.5
2018-Apr-26 17:10N 34°26' E 134°03'713.5
2018-Apr-26 16:38N 34°24' E 133°55'414.3
2018-Apr-26 16:21N 34°23' E 133°51'5912.5
2018-Apr-26 11:39N 34°06' E 132°42'214.0
2018-Apr-26 11:31N 34°05' E 132°40'813.7
2018-Apr-26 10:57N 34°03' E 132°31'614.0
2018-Apr-26 10:30N 34°06' E 132°25'713.7
2018-Apr-26 10:00N 34°10' E 132°18'4 8.6
2018-Apr-26 09:30N 34°13' E 132°15'0 0.0
2018-Apr-26 09:00N 34°13' E 132°15'0 0.0
2018-Apr-26 08:30N 34°13' E 132°15'0 0.4
2018-Apr-26 08:00N 34°14' E 132°15'0 0.9
2018-Apr-26 07:30N 34°14' E 132°15'0 0.0
2018-Apr-26 06:59N 34°14' E 132°15'0 0.0
2018-Apr-26 06:30N 34°14' E 132°15'0 0.0
2018-Apr-26 06:00N 34°14' E 132°15'0 0.0
2018-Apr-26 05:30N 34°14' E 132°15'0 0.0
2018-Apr-26 05:00N 34°14' E 132°15'0 0.0
2018-Apr-26 04:30N 34°14' E 132°15'1 2.4
2018-Apr-26 04:00N 34°13' E 132°16'612.5
2018-Apr-26 03:29N 34°08' E 132°21'1111.8
2018-Apr-26 02:34N 34°01' E 132°31'212.0
2018-Apr-26 02:25N 34°01' E 132°33'6 9.6
2018-Apr-26 01:51N 33°55' E 132°36'410.3
2018-Apr-26 01:30N 33°52' E 132°38'4 5.8
2018-Apr-26 00:51N 33°51' E 132°42'0 0.0
2018-Apr-26 00:15N 33°51' E 132°42'0 0.0
2018-Apr-25 23:56N 33°51' E 132°42'0 0.0
2018-Apr-25 23:19N 33°51' E 132°42'0 0.0
2018-Apr-25 22:58N 33°51' E 132°42'0 0.0
2018-Apr-25 22:30N 33°51' E 132°42'0 0.0
2018-Apr-25 22:00N 33°51' E 132°42'0 0.0
2018-Apr-25 21:28N 33°51' E 132°42'0 0.0
2018-Apr-25 20:59N 33°51' E 132°42'0 0.0
2018-Apr-25 20:29N 33°51' E 132°42'0 0.4
2018-Apr-25 19:57N 33°51' E 132°42'510.0
2018-Apr-25 19:30N 33°55' E 132°43'711.8
2018-Apr-25 18:57N 34°01' E 132°46'7410.7
2018-Apr-25 12:01N 34°25' E 134°10'211.0
2018-Apr-25 11:48N 34°24' E 134°13'410.9
2018-Apr-25 11:28N 34°24' E 134°17'611.9
2018-Apr-25 11:00N 34°25' E 134°24'612.4
2018-Apr-25 10:30N 34°28' E 134°31'612.4
2018-Apr-25 10:00N 34°30' E 134°38'612.6
2018-Apr-25 09:30N 34°33' E 134°45'714.0
2018-Apr-25 09:00N 34°35' E 134°53'714.1
2018-Apr-25 08:30N 34°38' E 135°01'713.3
2018-Apr-25 08:00N 34°37' E 135°09'611.2
2018-Apr-25 07:30N 34°39' E 135°15'1 1.1
2018-Apr-25 07:00N 34°40' E 135°14'0 0.0
2018-Apr-25 06:31N 34°40' E 135°14'1 1.0
2018-Apr-25 06:00N 34°39' E 135°15'2 4.7
2018-Apr-25 05:30N 34°41' E 135°17'0 0.0
2018-Apr-25 05:00N 34°41' E 135°17'1 1.1
2018-Apr-25 04:30N 34°41' E 135°16'2 4.9
2018-Apr-25 04:00N 34°38' E 135°15'1 1.0
2018-Apr-25 03:30N 34°38' E 135°15'511.0
2018-Apr-25 03:01N 34°36' E 135°09'713.1
2018-Apr-25 02:30N 34°37' E 135°01'714.4
2018-Apr-25 02:00N 34°38' E 134°52'714.2
2018-Apr-25 01:30N 34°41' E 134°45'713.3
2018-Apr-25 01:00N 34°45' E 134°38'2 4.5
2018-Apr-25 00:29N 34°46' E 134°36'0 0.0
2018-Apr-25 00:00N 34°46' E 134°36'0 0.0
2018-Apr-24 23:30N 34°46' E 134°36'0 0.1
2018-Apr-24 23:00N 34°46' E 134°36'2 3.5
2018-Apr-24 22:30N 34°45' E 134°37'2 3.6
2018-Apr-24 21:59N 34°43' E 134°36'612.2
2018-Apr-24 21:30N 34°42' E 134°29'8 0.8
2018-Apr-24 11:48N 34°39' E 134°20'1212.1
2018-Apr-24 10:50N 34°32' E 134°08'  
2018-Apr-18 06:22N 34°25' E 134°12'410.6
2018-Apr-18 06:00N 34°25' E 134°17'611.5
2018-Apr-18 05:30N 34°26' E 134°24'612.4
2018-Apr-18 05:00N 34°28' E 134°31'612.4
2018-Apr-18 04:30N 34°31' E 134°38'612.0
2018-Apr-18 04:00N 34°33' E 134°45'612.4
2018-Apr-18 03:31N 34°35' E 134°52'612.3
2018-Apr-18 03:01N 34°37' E 134°58'611.7
2018-Apr-18 02:31N 34°36' E 135°05'713.0
2018-Apr-18 02:01N 34°37' E 135°13'4 8.9
2018-Apr-18 01:31N 34°41' E 135°17'0 0.0
2018-Apr-18 01:01N 34°41' E 135°17'2 4.5
2018-Apr-18 00:31N 34°40' E 135°14'0 0.0
2018-Apr-18 00:01N 34°40' E 135°14'0 0.0
2018-Apr-17 23:30N 34°40' E 135°14'1 1.1
2018-Apr-17 23:01N 34°40' E 135°15'2 4.6
2018-Apr-17 22:30N 34°41' E 135°12'0 0.0
2018-Apr-17 21:59N 34°41' E 135°12'0 0.0
2018-Apr-17 21:30N 34°41' E 135°12'0 0.0
2018-Apr-17 21:00N 34°41' E 135°12'0 0.0
2018-Apr-17 20:30N 34°41' E 135°12'0 0.0
2018-Apr-17 20:01N 34°41' E 135°12'0 0.0
2018-Apr-17 19:29N 34°41' E 135°12'0 0.0
2018-Apr-17 19:01N 34°41' E 135°12'0 0.0
2018-Apr-17 18:31N 34°41' E 135°12'0 0.0
2018-Apr-17 18:00N 34°41' E 135°12'0 0.0
2018-Apr-17 17:31N 34°41' E 135°12'0 0.0
2018-Apr-17 17:00N 34°41' E 135°12'0 0.0
2018-Apr-17 16:30N 34°41' E 135°12'0 0.0
2018-Apr-17 16:00N 34°41' E 135°12'0 0.0
2018-Apr-17 15:30N 34°41' E 135°12'0 0.0
2018-Apr-17 15:01N 34°41' E 135°12'0 0.0
2018-Apr-17 14:30N 34°41' E 135°12'0 0.0
2018-Apr-17 14:00N 34°41' E 135°12'0 0.0
2018-Apr-17 13:31N 34°41' E 135°12'0 0.0
2018-Apr-17 13:00N 34°41' E 135°12'0 0.0
2018-Apr-17 12:30N 34°41' E 135°12'0 0.0
2018-Apr-17 12:00N 34°41' E 135°12'0 0.0
2018-Apr-17 11:30N 34°41' E 135°12'0 0.0
2018-Apr-17 10:59N 34°41' E 135°12'0 0.0
2018-Apr-17 10:30N 34°41' E 135°12'0 0.0
2018-Apr-17 10:00N 34°41' E 135°12'0 0.0
2018-Apr-17 09:31N 34°41' E 135°12'0 0.0
2018-Apr-17 09:00N 34°41' E 135°12'0 0.0
2018-Apr-17 08:31N 34°41' E 135°12'0 0.0
2018-Apr-17 08:00N 34°41' E 135°12'1 2.4
2018-Apr-17 07:30N 34°41' E 135°14'4 8.8
2018-Apr-17 07:00N 34°37' E 135°12'713.4
2018-Apr-17 06:30N 34°35' E 135°04'815.5
2018-Apr-17 06:00N 34°35' E 134°54'815.3
2018-Apr-17 05:30N 34°32' E 134°45'713.9
2018-Apr-17 05:00N 34°30' E 134°38'713.6
2018-Apr-17 04:30N 34°27' E 134°30'713.3
2018-Apr-17 03:59N 34°24' E 134°22'  

Dump ship's entire track history